createdAt,value
2023-02-25T00:03:20.346Z,88.88
2023-02-25T00:07:23.145Z,101.47
2023-02-25T00:11:26.404Z,104.72
2023-02-25T00:15:28.545Z,115.22
2023-02-25T00:19:30.699Z,121.38
2023-02-25T00:23:32.928Z,158.63
2023-02-25T00:27:35.766Z,114.57
2023-02-25T00:31:38.099Z,99.72
2023-02-25T00:35:41.333Z,101.28
2023-02-25T00:39:43.600Z,96.03
2023-02-25T00:43:54.519Z,88.70
2023-02-25T00:47:56.944Z,82.45
2023-02-25T00:52:00.158Z,82.03
2023-02-25T00:56:02.577Z,108.68
2023-02-25T01:00:11.280Z,95.50
2023-02-25T01:04:13.412Z,88.43
2023-02-25T01:08:20.620Z,94.10
2023-02-25T01:12:24.009Z,82.80
2023-02-25T01:16:31.585Z,88.07
2023-02-25T01:20:38.561Z,90.45
2023-02-25T01:24:42.478Z,81.45
2023-02-25T01:28:45.350Z,82.00
2023-02-25T01:32:47.575Z,64.05
2023-02-25T01:36:49.730Z,70.40
2023-02-25T01:40:58.460Z,68.50
2023-02-25T01:45:33.177Z,66.72
2023-02-25T01:49:44.292Z,70.72
2023-02-25T01:53:47.742Z,74.57
2023-02-25T01:57:50.816Z,62.20
2023-02-25T02:01:53.014Z,58.75
2023-02-25T02:06:10.636Z,58.05
2023-02-25T02:10:15.423Z,67.30
2023-02-25T02:14:31.988Z,83.95
2023-02-25T02:18:36.861Z,73.35
2023-02-25T02:22:57.235Z,69.32
2023-02-25T02:27:10.133Z,74.65
2023-02-25T02:31:26.457Z,71.90
2023-02-25T02:35:52.131Z,85.03
2023-02-25T02:40:15.356Z,79.05
2023-02-25T02:44:31.393Z,78.43
2023-02-25T02:49:04.103Z,57.08
2023-02-25T02:53:13.710Z,52.13
2023-02-25T02:57:17.298Z,58.40
2023-02-25T03:01:26.029Z,64.37
2023-02-25T03:05:33.026Z,65.18
2023-02-25T03:10:02.699Z,61.55
2023-02-25T03:14:08.889Z,63.65
2023-02-25T03:18:21.552Z,65.25
2023-02-25T03:22:29.591Z,58.47
2023-02-25T03:26:33.682Z,56.20
2023-02-25T03:30:44.093Z,84.80
2023-02-25T03:34:49.940Z,64.05
2023-02-25T03:38:57.303Z,63.70
2023-02-25T03:43:11.577Z,61.20
2023-02-25T03:47:15.604Z,66.30
2023-02-25T03:51:24.068Z,66.63
2023-02-25T03:55:29.428Z,60.97
2023-02-25T03:59:32.076Z,62.47
2023-02-25T04:03:34.296Z,62.42
2023-02-25T04:07:36.929Z,68.43
2023-02-25T04:11:39.216Z,61.08
2023-02-25T04:15:42.228Z,65.88
2023-02-25T04:19:44.927Z,59.65
2023-02-25T04:23:47.284Z,67.63
2023-02-25T04:27:49.425Z,59.97
2023-02-25T04:31:52.543Z,65.70
2023-02-25T04:35:54.952Z,58.00
2023-02-25T04:39:57.904Z,54.90
2023-02-25T04:44:00.404Z,61.45
2023-02-25T04:48:02.769Z,47.90
2023-02-25T04:52:04.982Z,45.42
2023-02-25T04:56:09.176Z,42.58
2023-02-25T05:00:24.353Z,47.88
2023-02-25T05:04:26.513Z,54.95
2023-02-25T05:08:29.237Z,51.60
2023-02-25T05:12:31.360Z,38.53
2023-02-25T05:16:33.608Z,44.45
2023-02-25T05:20:44.606Z,45.45
2023-02-25T05:24:46.777Z,39.58
2023-02-25T05:28:50.847Z,38.95
2023-02-25T05:32:53.389Z,40.15
2023-02-25T05:36:55.611Z,35.25
2023-02-25T05:41:00.817Z,41.30
2023-02-25T05:45:04.288Z,39.90
2023-02-25T05:49:06.864Z,37.05
2023-02-25T05:53:10.055Z,36.42
2023-02-25T05:57:12.510Z,38.83
2023-02-25T06:01:22.844Z,42.78
2023-02-25T06:05:25.225Z,40.70
2023-02-25T06:09:27.455Z,41.85
2023-02-25T06:13:30.064Z,43.20
2023-02-25T06:17:32.273Z,33.70
2023-02-25T06:21:35.917Z,43.15
2023-02-25T06:25:38.025Z,47.77
2023-02-25T06:29:41.945Z,41.22
2023-02-25T06:33:45.672Z,40.88
2023-02-25T06:37:47.779Z,42.00
2023-02-25T06:41:49.966Z,38.63
2023-02-25T06:45:52.093Z,38.47
2023-02-25T06:49:54.145Z,39.38
2023-02-25T06:53:56.287Z,39.80
2023-02-25T06:57:58.458Z,36.83
2023-02-25T07:02:01.041Z,36.80
2023-02-25T07:06:03.795Z,35.40
2023-02-25T07:10:06.511Z,32.80
2023-02-25T07:14:08.649Z,29.98
2023-02-25T07:18:11.316Z,35.10
2023-02-25T07:22:16.789Z,31.50
2023-02-25T07:26:19.036Z,33.25
2023-02-25T07:30:21.111Z,30.30
2023-02-25T07:34:25.990Z,31.38
2023-02-25T07:38:28.129Z,27.55
2023-02-25T07:42:30.659Z,29.55
2023-02-25T07:46:36.405Z,27.67
2023-02-25T07:50:38.488Z,26.45
2023-02-25T07:54:40.722Z,30.83
2023-02-25T07:58:42.910Z,24.33
2023-02-25T08:02:45.578Z,28.33
2023-02-25T08:06:47.759Z,22.75
2023-02-25T08:10:50.102Z,29.30
2023-02-25T08:14:52.246Z,26.60
2023-02-25T08:18:55.007Z,25.98
2023-02-25T08:22:57.164Z,24.60
2023-02-25T08:26:59.296Z,26.33
2023-02-25T08:31:01.564Z,29.38
2023-02-25T08:35:03.821Z,29.25
2023-02-25T08:39:06.086Z,37.72
2023-02-25T08:43:09.349Z,33.20
2023-02-25T08:47:11.435Z,32.67
2023-02-25T08:51:15.224Z,34.30
2023-02-25T08:55:18.209Z,24.05
2023-02-25T08:59:20.384Z,21.10
2023-02-25T09:03:22.499Z,21.40
2023-02-25T09:07:24.570Z,20.33
2023-02-25T09:11:26.937Z,23.13
2023-02-25T09:15:29.209Z,24.13
2023-02-25T09:19:32.636Z,24.23
2023-02-25T09:23:34.937Z,26.90
2023-02-25T09:27:37.416Z,21.50
2023-02-25T09:31:39.973Z,23.10
2023-02-25T09:35:42.854Z,21.40
2023-02-25T09:39:44.924Z,22.67
2023-02-25T09:43:49.290Z,24.77
2023-02-25T09:52:07.888Z,29.25
2023-02-25T09:56:15.232Z,24.60
2023-02-25T10:00:19.008Z,24.30
2023-02-25T10:04:38.187Z,26.90
2023-02-25T10:09:03.519Z,25.00
2023-02-25T10:13:12.924Z,23.83
2023-02-25T10:17:31.291Z,25.38
2023-02-25T10:22:14.987Z,25.38
2023-02-25T10:26:27.769Z,26.98
2023-02-25T10:30:38.320Z,26.58
2023-02-25T10:34:41.956Z,26.27
2023-02-25T10:38:53.144Z,25.43
2023-02-25T10:43:00.850Z,26.17
2023-02-25T10:47:06.309Z,28.95
2023-02-25T10:51:16.430Z,23.13
2023-02-25T10:55:27.410Z,27.58
2023-02-25T10:59:38.652Z,27.23
2023-02-25T11:04:02.953Z,24.77
2023-02-25T11:08:18.305Z,28.77
2023-02-25T11:12:20.519Z,21.58
2023-02-25T11:16:22.710Z,26.35
2023-02-25T11:20:28.299Z,29.27
2023-02-25T11:24:34.709Z,28.50
2023-02-25T11:28:43.964Z,26.08
2023-02-25T11:32:54.197Z,27.65
2023-02-25T11:37:00.005Z,26.88
2023-02-25T11:41:03.206Z,48.65
2023-02-25T11:45:05.829Z,26.92
2023-02-25T11:49:22.278Z,29.63
2023-02-25T11:53:52.799Z,29.02
2023-02-25T11:58:10.206Z,24.13
2023-02-25T12:02:33.758Z,27.77
2023-02-25T12:06:58.171Z,23.35
2023-02-25T12:11:31.380Z,22.02
2023-02-25T12:16:01.965Z,23.98
2023-02-25T12:20:43.584Z,20.55
2023-02-25T12:25:04.432Z,20.60
2023-02-25T12:29:21.726Z,21.02
2023-02-25T12:33:45.439Z,21.70
2023-02-25T12:38:17.272Z,23.10
2023-02-25T12:42:44.377Z,21.63
2023-02-25T12:47:05.268Z,23.00
2023-02-25T12:51:22.194Z,25.25
2023-02-25T12:55:54.930Z,20.55
2023-02-25T13:00:17.452Z,23.23
2023-02-25T13:05:00.848Z,25.67
2023-02-25T13:09:07.276Z,21.77
2023-02-25T13:13:30.374Z,21.90
2023-02-25T13:17:50.968Z,20.90
2023-02-25T13:22:01.222Z,30.98
2023-02-25T13:26:30.338Z,22.00
2023-02-25T13:30:58.188Z,19.52
2023-02-25T13:35:18.890Z,30.48
2023-02-25T13:39:39.730Z,23.42
2023-02-25T13:44:19.187Z,23.88
2023-02-25T13:48:51.811Z,25.73
2023-02-25T13:53:26.642Z,21.27
2023-02-25T13:58:05.984Z,25.25
2023-02-25T14:02:42.377Z,21.52
2023-02-25T14:07:12.458Z,23.63
2023-02-25T14:11:57.776Z,21.70
2023-02-25T14:16:05.466Z,26.05
2023-02-25T14:20:21.226Z,26.50
2023-02-25T14:24:42.521Z,27.23
2023-02-25T14:28:54.086Z,28.65
2023-02-25T14:33:19.482Z,24.48
2023-02-25T14:37:59.330Z,27.23
2023-02-25T14:42:13.742Z,29.60
2023-02-25T14:46:45.234Z,49.88
2023-02-25T14:51:26.796Z,30.77
2023-02-25T14:56:06.821Z,28.27
2023-02-25T15:00:09.728Z,26.27
2023-02-25T15:04:17.845Z,29.25
2023-02-25T15:08:48.675Z,26.98
2023-02-25T15:13:00.574Z,24.85
2023-02-25T15:17:11.809Z,43.15
2023-02-25T15:21:37.425Z,42.15
2023-02-25T15:25:49.823Z,40.60
2023-02-25T15:30:06.101Z,92.40
2023-02-25T15:34:23.612Z,39.28
2023-02-25T15:38:40.045Z,36.45
2023-02-25T15:42:54.130Z,35.92
2023-02-25T15:47:11.205Z,26.25
2023-02-25T15:51:42.661Z,32.58
2023-02-25T15:55:45.054Z,37.40
2023-02-25T15:59:58.258Z,31.90
2023-02-25T16:04:01.201Z,47.20
2023-02-25T16:08:14.487Z,42.55
2023-02-25T16:12:17.801Z,57.95
2023-02-25T16:16:22.952Z,63.22
2023-02-25T16:20:33.106Z,43.88
2023-02-25T16:24:36.894Z,35.83
2023-02-25T16:29:03.515Z,39.78
2023-02-25T16:33:08.371Z,39.83
2023-02-25T16:37:20.337Z,42.30
2023-02-25T16:41:30.344Z,43.42
2023-02-25T16:45:53.379Z,46.65
2023-02-25T16:49:58.424Z,47.75
2023-02-25T16:54:19.902Z,39.05
2023-02-25T16:58:24.458Z,45.97
2023-02-25T17:02:26.588Z,70.03
2023-02-25T17:06:29.000Z,56.13
2023-02-25T17:10:43.792Z,58.85
2023-02-25T17:14:49.510Z,281.48
2023-02-25T17:18:57.609Z,62.45
2023-02-25T17:23:06.502Z,60.63
2023-02-25T17:27:12.521Z,52.38
2023-02-25T17:31:21.012Z,56.05
2023-02-25T17:35:23.476Z,56.00
2023-02-25T17:39:26.275Z,62.38
2023-02-25T17:43:47.127Z,48.13
2023-02-25T17:47:49.692Z,43.35
2023-02-25T17:51:55.618Z,53.55
2023-02-25T17:56:09.437Z,49.25
2023-02-25T18:00:24.727Z,48.03
2023-02-25T18:04:35.146Z,54.08
2023-02-25T18:08:55.724Z,51.30
2023-02-25T18:12:59.941Z,53.75
2023-02-25T18:17:12.743Z,51.67
2023-02-25T18:21:15.457Z,47.35
2023-02-25T18:25:39.037Z,56.65
2023-02-25T18:29:41.079Z,57.63
2023-02-25T18:33:43.312Z,60.63
2023-02-25T18:37:47.599Z,68.65
2023-02-25T18:41:49.658Z,76.18
2023-02-25T18:45:51.786Z,63.55
2023-02-25T18:49:53.979Z,52.65
2023-02-25T18:53:56.199Z,65.03
2023-02-25T18:57:58.883Z,64.50
2023-02-25T19:02:01.315Z,87.15
2023-02-25T19:06:04.486Z,65.85
2023-02-25T19:10:07.764Z,55.78
2023-02-25T19:14:17.972Z,52.00
2023-02-25T19:18:20.136Z,67.97
2023-02-25T19:22:22.851Z,57.58
2023-02-25T19:26:26.237Z,59.97
2023-02-25T19:30:35.807Z,102.07
2023-02-25T19:34:38.075Z,56.88
2023-02-25T19:38:40.362Z,52.70
2023-02-25T19:42:45.080Z,52.08
2023-02-25T19:46:47.318Z,48.85
2023-02-25T19:50:49.575Z,38.85
2023-02-25T19:54:51.676Z,39.28
2023-02-25T19:58:57.809Z,27.30
2023-02-25T20:02:59.890Z,19.13
2023-02-25T20:07:01.960Z,18.08
2023-02-25T20:11:09.546Z,15.50
2023-02-25T20:15:13.765Z,18.35
2023-02-25T20:19:16.020Z,14.65
2023-02-25T20:23:18.125Z,16.85
2023-02-25T20:27:20.312Z,15.05
2023-02-25T20:31:25.675Z,13.60
2023-02-25T20:35:28.939Z,17.00
2023-02-25T20:39:39.481Z,18.33
2023-02-25T20:43:41.762Z,19.58
2023-02-25T20:47:44.017Z,17.70
2023-02-25T20:51:47.711Z,14.80
2023-02-25T20:55:49.857Z,23.17
2023-02-25T20:59:53.952Z,18.05
2023-02-25T21:03:56.682Z,18.95
2023-02-25T21:07:58.774Z,27.52
2023-02-25T21:12:01.370Z,20.75
2023-02-25T21:16:06.327Z,18.10
2023-02-25T21:20:11.114Z,19.52
2023-02-25T21:24:15.288Z,21.05
2023-02-25T21:28:17.654Z,21.88
2023-02-25T21:32:19.862Z,20.65
2023-02-25T21:36:22.359Z,22.27
2023-02-25T21:40:24.635Z,20.02
2023-02-25T21:44:27.333Z,22.83
2023-02-25T21:48:31.250Z,21.65
2023-02-25T21:52:33.541Z,40.28
2023-02-25T21:56:35.720Z,49.35
2023-02-25T22:00:38.988Z,40.40
2023-02-25T22:04:41.162Z,46.40
2023-02-25T22:08:45.922Z,40.58
2023-02-25T22:12:47.993Z,25.38
2023-02-25T22:16:50.396Z,28.45
2023-02-25T22:20:53.299Z,32.63
2023-02-25T22:24:56.053Z,30.48
2023-02-25T22:29:02.006Z,28.25
2023-02-25T22:33:04.411Z,26.50
2023-02-25T22:37:06.641Z,29.48
2023-02-25T22:41:14.809Z,34.58
2023-02-25T22:45:17.539Z,30.38
2023-02-25T22:49:19.738Z,26.88
2023-02-25T22:53:22.379Z,35.03
2023-02-25T22:57:24.524Z,34.45
2023-02-25T23:01:27.402Z,26.77
2023-02-25T23:05:29.599Z,26.45
2023-02-25T23:09:31.626Z,37.70
2023-02-25T23:13:33.716Z,77.03
2023-02-25T23:17:35.935Z,35.83
2023-02-25T23:21:41.142Z,41.78
2023-02-25T23:25:43.360Z,28.35
2023-02-25T23:29:45.475Z,42.60
2023-02-25T23:33:48.347Z,59.75
2023-02-25T23:37:50.845Z,41.47
2023-02-25T23:41:53.082Z,44.95
2023-02-25T23:45:55.527Z,42.20
2023-02-25T23:49:57.989Z,52.58
2023-02-25T23:54:04.093Z,42.22
2023-02-25T23:58:06.356Z,62.00
